createdAt,value
2023-12-12T00:01:25.783Z,6.40
2023-12-12T00:03:52.885Z,6.30
2023-12-12T00:14:38.413Z,6.40
2023-12-12T00:17:05.458Z,6.40
2023-12-12T00:19:32.177Z,6.40
2023-12-12T00:21:58.996Z,6.40
2023-12-12T00:24:25.848Z,6.40
2023-12-12T00:26:52.831Z,6.40
2023-12-12T00:29:19.550Z,6.40
2023-12-12T00:31:46.277Z,6.40
2023-12-12T00:34:13.067Z,6.30
2023-12-12T00:36:39.818Z,6.30
2023-12-12T00:39:07.208Z,6.40
2023-12-12T00:41:35.045Z,6.40
2023-12-12T00:44:02.127Z,6.40
2023-12-12T00:46:28.978Z,6.30
2023-12-12T00:48:56.115Z,6.30
2023-12-12T00:51:23.029Z,6.40
2023-12-12T00:53:50.187Z,6.30
2023-12-12T00:56:16.969Z,6.30
2023-12-12T00:58:43.689Z,6.20
2023-12-12T01:01:12.886Z,6.40
2023-12-12T01:03:40.205Z,6.30
2023-12-12T01:06:07.588Z,6.30
2023-12-12T01:08:34.676Z,6.30
2023-12-12T01:11:02.056Z,6.20
2023-12-12T01:13:28.938Z,6.20
2023-12-12T01:15:55.709Z,6.20
2023-12-12T01:18:22.566Z,6.20
2023-12-12T01:20:49.414Z,6.20
2023-12-12T01:23:16.697Z,6.10
2023-12-12T01:25:43.652Z,6.20
2023-12-12T01:28:10.471Z,6.30
2023-12-12T01:30:39.354Z,6.30
2023-12-12T01:33:06.942Z,6.20
2023-12-12T01:35:33.760Z,6.20
2023-12-12T01:38:00.493Z,6.20
2023-12-12T01:40:27.257Z,6.20
2023-12-12T01:43:05.460Z,6.10
2023-12-12T01:45:32.212Z,6.20
2023-12-12T01:47:59.178Z,6.30
2023-12-12T01:50:26.046Z,6.20
2023-12-12T01:52:53.358Z,6.30
2023-12-12T01:55:20.408Z,6.10
2023-12-12T01:57:47.146Z,6.10
2023-12-12T02:00:14.655Z,6.10
2023-12-12T02:02:41.510Z,6.20
2023-12-12T02:05:08.884Z,6.20
2023-12-12T02:07:37.171Z,6.20
2023-12-12T02:10:04.619Z,6.20
2023-12-12T02:12:31.720Z,6.10
2023-12-12T02:14:58.556Z,6.00
2023-12-12T02:17:25.369Z,6.00
2023-12-12T02:19:52.279Z,6.00
2023-12-12T02:22:19.100Z,6.00
2023-12-12T02:24:45.857Z,6.00
2023-12-12T02:27:12.824Z,6.00
2023-12-12T02:29:39.636Z,6.00
2023-12-12T02:32:06.659Z,6.00
2023-12-12T02:34:33.656Z,5.90
2023-12-12T02:37:00.492Z,5.90
2023-12-12T02:39:27.253Z,6.00
2023-12-12T02:41:54.162Z,6.10
2023-12-12T02:44:20.942Z,6.00
2023-12-12T02:46:47.705Z,6.00
2023-12-12T02:49:14.578Z,6.00
2023-12-12T02:51:41.374Z,6.10
2023-12-12T02:54:08.113Z,6.10
2023-12-12T02:56:34.889Z,6.00
2023-12-12T02:59:01.859Z,6.10
2023-12-12T03:01:28.759Z,6.10
2023-12-12T03:03:55.750Z,6.30
2023-12-12T03:06:22.692Z,6.30
2023-12-12T03:08:49.519Z,6.30
2023-12-12T03:11:16.338Z,6.30
2023-12-12T03:13:43.238Z,6.30
2023-12-12T03:16:10.179Z,6.30
2023-12-12T03:18:36.994Z,6.30
2023-12-12T03:21:04.378Z,6.30
2023-12-12T03:23:31.654Z,6.20
2023-12-12T03:25:58.809Z,6.10
2023-12-12T03:28:26.192Z,6.20
2023-12-12T03:30:53.756Z,6.20
2023-12-12T03:33:20.907Z,6.30
2023-12-12T03:35:47.915Z,6.30
2023-12-12T03:38:14.681Z,6.30
2023-12-12T03:40:41.539Z,6.30
2023-12-12T03:43:08.799Z,6.30
2023-12-12T03:45:35.529Z,6.40
2023-12-12T03:48:02.311Z,6.30
2023-12-12T03:50:29.221Z,6.40
2023-12-12T03:52:56.046Z,6.40
2023-12-12T03:55:22.892Z,6.30
2023-12-12T03:57:49.740Z,6.30
2023-12-12T04:00:16.772Z,6.30
2023-12-12T04:02:43.693Z,6.30
2023-12-12T04:05:10.994Z,6.20
2023-12-12T04:07:41.312Z,6.20
2023-12-12T04:10:09.138Z,6.20
2023-12-12T04:12:36.884Z,6.30
2023-12-12T04:15:04.384Z,6.40
2023-12-12T04:17:31.963Z,6.30
2023-12-12T04:19:59.987Z,6.50
2023-12-12T04:22:26.946Z,6.40
2023-12-12T04:24:54.006Z,6.50
2023-12-12T04:27:20.845Z,6.40
2023-12-12T04:29:48.963Z,6.30
2023-12-12T04:32:16.277Z,6.20
2023-12-12T04:34:43.371Z,6.10
2023-12-12T04:37:10.465Z,6.10
2023-12-12T04:39:37.466Z,6.00
2023-12-12T04:42:05.722Z,6.00
2023-12-12T04:44:32.497Z,6.00
2023-12-12T04:46:59.309Z,5.90
2023-12-12T04:49:26.605Z,6.10
2023-12-12T04:51:53.461Z,6.10
2023-12-12T04:54:20.228Z,6.10
2023-12-12T04:56:47.099Z,6.10
2023-12-12T04:59:13.982Z,6.10
2023-12-12T05:01:41.175Z,6.00
2023-12-12T05:04:08.428Z,5.90
2023-12-12T05:06:35.538Z,5.90
2023-12-12T05:09:02.644Z,5.90
2023-12-12T05:11:29.869Z,5.90
2023-12-12T05:13:57.983Z,5.90
2023-12-12T05:16:31.687Z,5.80
2023-12-12T05:19:00.148Z,5.90
2023-12-12T05:21:27.868Z,5.90
2023-12-12T05:23:54.714Z,5.90
2023-12-12T05:26:21.464Z,5.90
2023-12-12T05:28:48.294Z,5.90
2023-12-12T05:31:15.366Z,5.80
2023-12-12T05:33:42.566Z,5.80
2023-12-12T05:36:10.464Z,5.80
2023-12-12T05:38:39.859Z,5.80
2023-12-12T05:41:07.581Z,5.80
2023-12-12T05:43:34.588Z,5.80
2023-12-12T05:46:01.479Z,5.80
2023-12-12T05:48:28.389Z,5.80
2023-12-12T05:50:56.453Z,5.80
2023-12-12T05:53:23.277Z,5.80
2023-12-12T05:55:49.989Z,5.80
2023-12-12T05:58:16.867Z,5.80
2023-12-12T06:00:43.734Z,5.70
2023-12-12T06:03:10.488Z,5.70
2023-12-12T06:05:37.197Z,5.70
2023-12-12T06:08:04.133Z,5.70
2023-12-12T06:10:30.848Z,5.70
2023-12-12T06:12:58.421Z,5.80
2023-12-12T06:15:25.160Z,5.70
2023-12-12T06:17:52.126Z,5.60
2023-12-12T06:20:19.292Z,5.70
2023-12-12T06:22:46.893Z,5.70
2023-12-12T06:25:13.844Z,5.90
2023-12-12T06:27:40.690Z,5.90
2023-12-12T06:30:08.814Z,5.90
2023-12-12T06:32:35.925Z,5.80
2023-12-12T06:35:06.065Z,5.70
2023-12-12T06:37:33.562Z,5.60
2023-12-12T06:40:01.434Z,5.60
2023-12-12T06:42:28.277Z,5.60
2023-12-12T06:44:55.106Z,5.60
2023-12-12T06:47:21.988Z,5.50
2023-12-12T06:49:49.263Z,5.50
2023-12-12T06:52:16.134Z,5.50
2023-12-12T06:54:42.911Z,5.50
2023-12-12T06:57:09.698Z,5.50
2023-12-12T06:59:36.476Z,5.60
2023-12-12T07:02:03.525Z,5.60
2023-12-12T07:04:31.041Z,5.70
2023-12-12T07:06:57.904Z,5.60
2023-12-12T07:09:24.680Z,5.60
2023-12-12T07:11:51.403Z,5.60
2023-12-12T07:14:18.210Z,5.60
2023-12-12T07:16:44.966Z,5.60
2023-12-12T07:19:11.790Z,5.60
2023-12-12T07:21:45.677Z,5.70
2023-12-12T07:24:15.765Z,5.70
2023-12-12T07:26:46.175Z,5.60
2023-12-12T07:29:13.204Z,5.60
2023-12-12T07:31:40.256Z,5.60
2023-12-12T07:34:07.258Z,5.50
2023-12-12T07:36:35.884Z,5.40
2023-12-12T07:39:02.676Z,5.50
2023-12-12T07:41:29.479Z,5.60
2023-12-12T07:43:56.507Z,5.60
2023-12-12T07:46:23.976Z,5.60
2023-12-12T07:48:51.415Z,5.50
2023-12-12T07:51:18.371Z,5.50
2023-12-12T07:53:45.097Z,5.50
2023-12-12T07:56:11.810Z,5.50
2023-12-12T07:58:39.063Z,5.40
2023-12-12T08:01:07.652Z,5.40
2023-12-12T08:03:35.735Z,5.40
2023-12-12T08:06:02.587Z,5.40
2023-12-12T08:08:29.374Z,5.40
2023-12-12T08:10:56.155Z,5.50
2023-12-12T08:13:23.605Z,5.50
2023-12-12T08:15:50.412Z,5.50
2023-12-12T08:18:17.213Z,5.50
2023-12-12T08:20:44.078Z,5.50
2023-12-12T08:23:11.371Z,5.50
2023-12-12T08:25:38.195Z,5.60
2023-12-12T08:28:05.346Z,5.60
2023-12-12T08:30:32.879Z,5.60
2023-12-12T08:33:00.048Z,5.60
2023-12-12T08:35:27.155Z,5.60
2023-12-12T08:37:54.484Z,5.60
2023-12-12T08:40:21.992Z,5.80
2023-12-12T08:42:49.411Z,6.00
2023-12-12T08:45:16.210Z,6.10
2023-12-12T08:47:42.967Z,6.10
2023-12-12T08:50:10.760Z,6.00
2023-12-12T08:52:38.279Z,5.90
2023-12-12T08:55:09.092Z,6.00
2023-12-12T08:57:36.075Z,5.90
2023-12-12T09:00:04.854Z,5.90
2023-12-12T09:02:31.655Z,5.80
2023-12-12T09:04:58.725Z,6.00
2023-12-12T09:07:25.555Z,6.30
2023-12-12T09:09:52.613Z,6.10
2023-12-12T09:12:19.416Z,6.20
2023-12-12T09:14:46.677Z,6.40
2023-12-12T09:17:13.975Z,6.40
2023-12-12T09:19:41.048Z,6.40
2023-12-12T09:22:07.973Z,6.50
2023-12-12T09:24:35.004Z,6.50
2023-12-12T09:27:02.264Z,6.50
2023-12-12T09:29:29.067Z,6.60
2023-12-12T09:31:57.202Z,6.40
2023-12-12T09:34:24.562Z,6.50
2023-12-12T09:36:51.934Z,6.50
2023-12-12T09:39:19.133Z,6.50
2023-12-12T09:41:48.916Z,6.60
2023-12-12T09:44:17.896Z,6.60
2023-12-12T09:46:45.985Z,6.50
2023-12-12T09:49:14.431Z,6.40
2023-12-12T09:51:44.954Z,6.40
2023-12-12T09:54:15.290Z,6.40
2023-12-12T09:56:42.371Z,6.40
2023-12-12T09:59:09.192Z,6.40
2023-12-12T10:01:36.606Z,6.50
2023-12-12T10:04:07.692Z,6.60
2023-12-12T10:06:43.446Z,6.50
2023-12-12T10:09:10.814Z,6.50
2023-12-12T10:11:37.552Z,6.50
2023-12-12T10:14:04.332Z,6.50
2023-12-12T10:16:32.245Z,6.50
2023-12-12T10:19:02.836Z,6.50
2023-12-12T10:21:30.380Z,6.60
2023-12-12T10:23:57.541Z,6.50
2023-12-12T10:26:32.691Z,6.60
2023-12-12T10:29:01.459Z,6.60
2023-12-12T10:31:28.985Z,6.60
2023-12-12T10:33:58.005Z,6.70
2023-12-12T10:36:28.763Z,6.60
2023-12-12T10:38:55.864Z,6.70
2023-12-12T10:41:25.785Z,6.70
2023-12-12T10:43:54.553Z,6.70
2023-12-12T10:46:21.878Z,6.70
2023-12-12T10:48:54.453Z,6.70
2023-12-12T10:51:21.838Z,6.70
2023-12-12T10:53:52.471Z,6.80
2023-12-12T10:56:21.041Z,6.70
2023-12-12T10:58:51.526Z,6.80
2023-12-12T11:01:19.112Z,6.80
2023-12-12T11:03:46.743Z,6.70
2023-12-12T11:06:14.258Z,6.80
2023-12-12T11:08:43.561Z,6.80
2023-12-12T11:11:13.493Z,6.90
2023-12-12T11:13:43.284Z,6.90
2023-12-12T11:16:12.032Z,7.00
2023-12-12T11:18:40.925Z,6.90
2023-12-12T11:21:09.438Z,6.90
2023-12-12T11:23:54.663Z,7.00
2023-12-12T11:26:27.459Z,7.00
2023-12-12T11:28:55.925Z,6.90
2023-12-12T11:31:29.441Z,7.00
2023-12-12T11:34:12.462Z,6.90
2023-12-12T11:36:52.285Z,6.90
2023-12-12T11:39:39.741Z,6.90
2023-12-12T11:42:16.407Z,7.00
2023-12-12T11:44:48.236Z,7.00
2023-12-12T11:47:16.550Z,7.00
2023-12-12T11:49:46.633Z,7.10
2023-12-12T11:52:39.637Z,7.10
2023-12-12T11:55:08.100Z,7.10
2023-12-12T11:57:34.991Z,7.10
2023-12-12T12:00:05.757Z,7.10
2023-12-12T12:02:32.964Z,7.20
2023-12-12T12:05:00.109Z,7.20
2023-12-12T12:07:30.218Z,7.20
2023-12-12T12:09:57.153Z,7.20
2023-12-12T12:12:24.066Z,7.10
2023-12-12T12:14:50.842Z,7.20
2023-12-12T12:17:17.672Z,7.20
2023-12-12T12:19:45.462Z,7.20
2023-12-12T12:22:14.001Z,7.20
2023-12-12T12:24:45.798Z,7.20
2023-12-12T12:27:13.554Z,7.30
2023-12-12T12:29:40.716Z,7.20
2023-12-12T12:32:14.698Z,7.40
2023-12-12T12:34:41.906Z,7.40
2023-12-12T12:37:28.971Z,7.30
2023-12-12T12:39:55.777Z,7.40
2023-12-12T12:42:22.650Z,7.30
2023-12-12T12:44:55.119Z,7.30
2023-12-12T12:47:22.471Z,7.30
2023-12-12T12:49:49.289Z,7.30
2023-12-12T12:52:16.044Z,7.30
2023-12-12T12:54:42.733Z,7.20
2023-12-12T12:57:13.699Z,7.10
2023-12-12T12:59:40.628Z,7.20
2023-12-12T13:02:08.745Z,7.40
2023-12-12T13:04:44.780Z,7.30
2023-12-12T13:07:11.728Z,7.40
2023-12-12T13:09:38.454Z,7.40
2023-12-12T13:12:05.779Z,7.40
2023-12-12T13:14:32.785Z,7.40
2023-12-12T13:16:59.930Z,7.40
2023-12-12T13:19:28.146Z,7.40
2023-12-12T13:21:55.556Z,7.40
2023-12-12T13:24:25.385Z,7.30
2023-12-12T13:26:52.874Z,7.30
2023-12-12T13:29:20.402Z,7.30
2023-12-12T13:31:47.329Z,7.20
2023-12-12T13:34:14.355Z,7.30
2023-12-12T13:36:43.074Z,7.40
2023-12-12T13:39:18.387Z,7.40
2023-12-12T13:41:47.774Z,7.40
2023-12-12T13:44:14.569Z,7.40
2023-12-12T13:46:41.385Z,7.30
2023-12-12T13:49:08.855Z,7.40
2023-12-12T13:51:44.073Z,7.30
2023-12-12T13:54:14.835Z,7.30
2023-12-12T13:56:41.881Z,7.20
2023-12-12T13:59:08.781Z,7.10
2023-12-12T14:01:36.040Z,7.10
2023-12-12T14:04:03.739Z,7.00
2023-12-12T14:06:30.734Z,7.10
2023-12-12T14:08:57.514Z,7.00
2023-12-12T14:11:26.250Z,7.00
2023-12-12T14:13:53.586Z,7.00
2023-12-12T14:16:28.153Z,7.00
2023-12-12T14:18:57.105Z,6.90
2023-12-12T14:21:23.980Z,7.10
2023-12-12T14:23:50.756Z,7.00
2023-12-12T14:26:18.784Z,7.00
2023-12-12T14:28:49.550Z,7.00
2023-12-12T14:31:17.989Z,7.00
2023-12-12T14:33:46.842Z,7.10
2023-12-12T14:36:14.526Z,7.10
2023-12-12T14:38:42.191Z,7.00
2023-12-12T14:41:09.002Z,7.00
2023-12-12T14:43:36.437Z,7.00
2023-12-12T14:46:03.397Z,7.20
2023-12-12T14:48:34.164Z,7.00
2023-12-12T14:51:01.757Z,7.00
2023-12-12T14:53:28.628Z,7.00
2023-12-12T14:55:55.545Z,7.00
2023-12-12T14:58:22.494Z,7.00
2023-12-12T15:00:49.944Z,7.40
2023-12-12T15:03:18.159Z,7.70
2023-12-12T15:05:46.044Z,7.60
2023-12-12T15:08:13.118Z,7.30
2023-12-12T15:10:40.503Z,7.20
2023-12-12T15:13:07.397Z,7.20
2023-12-12T15:15:34.359Z,7.00
2023-12-12T15:18:01.309Z,7.00
2023-12-12T15:20:28.133Z,7.00
2023-12-12T15:22:54.952Z,7.00
2023-12-12T15:25:28.407Z,6.90
2023-12-12T15:28:23.724Z,6.90
2023-12-12T15:30:49.845Z,6.90
2023-12-12T15:33:17.257Z,7.20
2023-12-12T15:35:44.648Z,7.10
2023-12-12T15:38:11.666Z,7.00
2023-12-12T15:40:38.467Z,7.00
2023-12-12T15:43:09.600Z,6.90
2023-12-12T15:45:37.483Z,6.90
2023-12-12T15:48:04.906Z,6.80
2023-12-12T15:50:31.879Z,6.80
2023-12-12T15:52:58.796Z,6.80
2023-12-12T15:55:25.663Z,6.80
2023-12-12T15:57:52.539Z,6.80
2023-12-12T16:00:19.735Z,6.70
2023-12-12T16:02:47.224Z,6.70
2023-12-12T16:05:14.269Z,6.70
2023-12-12T16:07:41.288Z,6.70
2023-12-12T16:10:09.585Z,6.80
2023-12-12T16:12:37.318Z,6.80
2023-12-12T16:15:09.907Z,6.80
2023-12-12T16:17:37.902Z,6.70
2023-12-12T16:20:08.766Z,6.70
2023-12-12T16:22:39.235Z,6.80
2023-12-12T16:25:06.920Z,7.00
2023-12-12T16:27:34.770Z,7.00
2023-12-12T16:30:01.976Z,7.00
2023-12-12T16:32:28.906Z,6.90
2023-12-12T16:34:56.041Z,7.10
2023-12-12T16:37:22.888Z,7.10
2023-12-12T16:39:49.742Z,7.10
2023-12-12T16:42:17.148Z,7.00
2023-12-12T16:44:44.561Z,6.90
2023-12-12T16:47:12.026Z,6.80
2023-12-12T16:49:39.220Z,6.70
2023-12-12T16:52:06.501Z,6.80
2023-12-12T16:54:33.453Z,6.90
2023-12-12T16:57:00.408Z,7.00
2023-12-12T16:59:30.349Z,7.10
2023-12-12T17:01:58.092Z,6.90
2023-12-12T17:04:29.994Z,6.80
2023-12-12T17:06:57.356Z,6.90
2023-12-12T17:09:24.758Z,6.80
2023-12-12T17:11:51.624Z,6.80
2023-12-12T17:14:18.504Z,6.80
2023-12-12T17:16:45.529Z,6.80
2023-12-12T17:19:13.068Z,6.70
2023-12-12T17:21:40.172Z,6.70
2023-12-12T17:24:07.983Z,6.80
2023-12-12T17:26:35.149Z,6.80
2023-12-12T17:29:01.901Z,6.90
2023-12-12T17:31:28.858Z,6.80
2023-12-12T17:33:55.707Z,6.80
2023-12-12T17:36:23.717Z,6.80
2023-12-12T17:38:50.777Z,6.80
2023-12-12T17:41:17.830Z,7.00
2023-12-12T17:43:45.502Z,7.20
2023-12-12T17:46:13.327Z,7.00
2023-12-12T17:48:41.300Z,7.10
2023-12-12T17:51:08.306Z,7.10
2023-12-12T17:53:35.577Z,7.10
2023-12-12T17:56:03.137Z,7.20
2023-12-12T17:58:30.183Z,7.30
2023-12-12T18:01:00.282Z,7.30
2023-12-12T18:03:29.999Z,7.30
2023-12-12T18:05:56.952Z,7.20
2023-12-12T18:08:23.832Z,7.20
2023-12-12T18:10:50.700Z,7.30
2023-12-12T18:13:19.819Z,7.40
2023-12-12T18:15:47.481Z,7.40
2023-12-12T18:18:14.460Z,7.30
2023-12-12T18:20:41.604Z,7.30
2023-12-12T18:23:08.559Z,7.30
2023-12-12T18:25:41.513Z,7.40
2023-12-12T18:28:08.788Z,7.30
2023-12-12T18:30:44.240Z,7.30
2023-12-12T18:33:11.761Z,7.10
2023-12-12T18:35:38.930Z,7.10
2023-12-12T18:38:06.113Z,7.10
2023-12-12T18:40:35.125Z,7.00
2023-12-12T18:43:02.108Z,7.20
2023-12-12T18:45:30.507Z,7.10
2023-12-12T18:48:00.800Z,7.00
2023-12-12T18:50:29.454Z,7.00
2023-12-12T18:52:57.323Z,7.40
2023-12-12T18:55:27.537Z,7.20
2023-12-12T18:57:56.354Z,7.10
2023-12-12T19:00:23.229Z,7.30
2023-12-12T19:02:50.138Z,7.20
2023-12-12T19:05:17.842Z,7.10
2023-12-12T19:07:45.269Z,7.10
2023-12-12T19:10:13.169Z,7.10
2023-12-12T19:12:43.372Z,7.10
2023-12-12T19:15:11.967Z,7.00
2023-12-12T19:17:39.958Z,7.00
2023-12-12T19:20:13.904Z,7.00
2023-12-12T19:22:40.887Z,6.90
2023-12-12T19:25:08.314Z,7.00
2023-12-12T19:27:36.204Z,7.10
2023-12-12T19:30:05.023Z,7.10
2023-12-12T19:32:33.274Z,7.10
2023-12-12T19:35:00.268Z,7.10
2023-12-12T19:37:27.109Z,7.10
2023-12-12T19:39:54.997Z,7.20
2023-12-12T19:42:21.862Z,7.10
2023-12-12T19:44:48.787Z,7.10
2023-12-12T19:47:15.680Z,7.10
2023-12-12T19:49:43.863Z,7.20
2023-12-12T19:52:11.378Z,7.30
2023-12-12T19:54:41.483Z,7.30
2023-12-12T19:57:08.496Z,7.20
2023-12-12T19:59:35.451Z,7.20
2023-12-12T20:02:03.241Z,7.10
2023-12-12T20:04:30.240Z,7.10
2023-12-12T20:06:58.360Z,7.30
2023-12-12T20:09:25.779Z,7.10
2023-12-12T20:11:52.669Z,7.10
2023-12-12T20:14:19.812Z,7.20
2023-12-12T20:16:47.193Z,7.20
2023-12-12T20:19:14.205Z,7.10
2023-12-12T20:21:41.832Z,7.10
2023-12-12T20:24:09.370Z,7.10
2023-12-12T20:26:44.849Z,7.20
2023-12-12T20:29:12.890Z,7.20
2023-12-12T20:31:40.434Z,7.30
2023-12-12T20:34:07.466Z,7.20
2023-12-12T20:36:37.611Z,7.20
2023-12-12T20:39:05.063Z,7.20
2023-12-12T20:41:35.669Z,7.20
2023-12-12T20:44:03.752Z,7.10
2023-12-12T20:46:30.669Z,7.10
2023-12-12T20:48:58.014Z,7.10
2023-12-12T20:51:25.774Z,7.10
2023-12-12T20:53:52.777Z,7.00
2023-12-12T20:56:19.852Z,7.00
2023-12-12T20:58:47.841Z,7.00
2023-12-12T21:01:15.042Z,7.00
2023-12-12T21:03:42.311Z,7.00
2023-12-12T21:06:09.556Z,7.00
2023-12-12T21:08:36.723Z,7.00
2023-12-12T21:11:03.663Z,7.00
2023-12-12T21:13:30.826Z,7.00
2023-12-12T21:15:57.955Z,7.10
2023-12-12T21:18:26.998Z,7.10
2023-12-12T21:20:54.212Z,7.40
2023-12-12T21:23:22.633Z,7.50
2023-12-12T21:25:49.887Z,7.50
2023-12-12T21:28:17.138Z,7.50
2023-12-12T21:30:44.155Z,7.50
2023-12-12T21:33:11.891Z,7.40
2023-12-12T21:35:38.741Z,7.30
2023-12-12T21:38:07.317Z,7.30
2023-12-12T21:40:34.560Z,7.30
2023-12-12T21:43:02.224Z,7.20
2023-12-12T21:45:29.140Z,7.30
2023-12-12T21:48:07.094Z,7.30
2023-12-12T21:50:34.530Z,7.20
2023-12-12T21:53:01.310Z,7.30
2023-12-12T21:55:28.133Z,7.20
2023-12-12T21:57:55.006Z,7.20
2023-12-12T22:00:21.870Z,7.20
2023-12-12T22:02:49.155Z,7.30
2023-12-12T22:05:16.091Z,7.20
2023-12-12T22:07:43.646Z,7.20
2023-12-12T22:10:10.775Z,7.20
2023-12-12T22:12:40.639Z,7.10
2023-12-12T22:15:08.991Z,7.10
2023-12-12T22:17:36.001Z,7.00
2023-12-12T22:20:06.690Z,7.00
2023-12-12T22:22:34.834Z,7.00
2023-12-12T22:25:01.851Z,7.00
2023-12-12T22:27:30.979Z,7.20
2023-12-12T22:29:58.137Z,7.10
2023-12-12T22:32:24.871Z,7.10
2023-12-12T22:34:51.662Z,7.10
2023-12-12T22:37:18.506Z,7.00
2023-12-12T22:39:45.212Z,7.00
2023-12-12T22:42:11.986Z,7.00
2023-12-12T22:44:38.780Z,6.90
2023-12-12T22:47:05.686Z,6.90
2023-12-12T22:49:32.581Z,6.90
2023-12-12T22:51:59.412Z,7.00
2023-12-12T22:54:26.187Z,7.00
2023-12-12T22:56:53.039Z,7.00
2023-12-12T22:59:19.930Z,7.30
2023-12-12T23:01:46.952Z,7.40
2023-12-12T23:04:14.005Z,7.50
2023-12-12T23:06:41.688Z,7.50
2023-12-12T23:09:11.772Z,7.40
2023-12-12T23:11:38.784Z,7.40
2023-12-12T23:14:05.785Z,7.40
2023-12-12T23:16:34.730Z,7.40
2023-12-12T23:19:01.637Z,7.30
2023-12-12T23:21:28.706Z,7.30
2023-12-12T23:23:55.494Z,7.30
2023-12-12T23:26:22.232Z,7.30
2023-12-12T23:28:49.942Z,7.20
2023-12-12T23:31:17.816Z,7.40
2023-12-12T23:33:46.322Z,7.20
2023-12-12T23:36:13.307Z,7.20
2023-12-12T23:38:40.110Z,7.30
2023-12-12T23:41:07.013Z,7.20
2023-12-12T23:43:34.046Z,7.20
2023-12-12T23:46:00.948Z,7.20
2023-12-12T23:48:27.778Z,7.20
2023-12-12T23:50:54.560Z,7.20
2023-12-12T23:53:21.288Z,7.20
2023-12-12T23:55:48.065Z,7.10
2023-12-12T23:58:14.850Z,7.20
